sensor_id;sensor_type;location;lat;lon;timestamp;pressure;altitude;pressure_sealevel;temperature
68745;BMP180;73143;45.456;11.064;2023-12-20T00:00:22;100673.60;;;5.70
68745;BMP180;73143;45.456;11.064;2023-12-20T00:03:00;100661.60;;;5.68
68745;BMP180;73143;45.456;11.064;2023-12-20T00:05:36;100655.80;;;5.60
68745;BMP180;73143;45.456;11.064;2023-12-20T00:08:15;100656.80;;;5.60
68745;BMP180;73143;45.456;11.064;2023-12-20T00:10:51;100656.20;;;5.52
68745;BMP180;73143;45.456;11.064;2023-12-20T00:13:29;100649.40;;;5.50
68745;BMP180;73143;45.456;11.064;2023-12-20T00:16:07;100650.20;;;5.50
68745;BMP180;73143;45.456;11.064;2023-12-20T00:18:43;100645.80;;;5.50
68745;BMP180;73143;45.456;11.064;2023-12-20T00:21:20;100631.80;;;5.50
68745;BMP180;73143;45.456;11.064;2023-12-20T00:23:58;100628.60;;;5.50
68745;BMP180;73143;45.456;11.064;2023-12-20T00:26:35;100623.80;;;5.50
68745;BMP180;73143;45.456;11.064;2023-12-20T00:29:12;100617.00;;;5.50
68745;BMP180;73143;45.456;11.064;2023-12-20T00:31:49;100608.60;;;5.50
68745;BMP180;73143;45.456;11.064;2023-12-20T00:34:26;100612.00;;;5.40
68745;BMP180;73143;45.456;11.064;2023-12-20T00:37:04;100606.00;;;5.30
68745;BMP180;73143;45.456;11.064;2023-12-20T00:39:41;100604.00;;;5.20
68745;BMP180;73143;45.456;11.064;2023-12-20T00:42:18;100599.60;;;5.10
68745;BMP180;73143;45.456;11.064;2023-12-20T00:44:54;100595.80;;;5.10
68745;BMP180;73143;45.456;11.064;2023-12-20T00:47:31;100592.40;;;5.10
68745;BMP180;73143;45.456;11.064;2023-12-20T00:50:14;100583.20;;;5.10
68745;BMP180;73143;45.456;11.064;2023-12-20T00:52:52;100579.60;;;5.10
68745;BMP180;73143;45.456;11.064;2023-12-20T00:55:30;100584.80;;;5.10
68745;BMP180;73143;45.456;11.064;2023-12-20T00:58:07;100580.40;;;5.06
68745;BMP180;73143;45.456;11.064;2023-12-20T01:00:44;100572.60;;;5.10
68745;BMP180;73143;45.456;11.064;2023-12-20T01:03:21;100580.20;;;5.10
68745;BMP180;73143;45.456;11.064;2023-12-20T01:05:58;100571.40;;;5.10
68745;BMP180;73143;45.456;11.064;2023-12-20T01:08:36;100566.20;;;5.10
68745;BMP180;73143;45.456;11.064;2023-12-20T01:11:13;100560.60;;;5.10
68745;BMP180;73143;45.456;11.064;2023-12-20T01:13:51;100561.20;;;5.10
68745;BMP180;73143;45.456;11.064;2023-12-20T01:16:28;100560.00;;;5.10
68745;BMP180;73143;45.456;11.064;2023-12-20T01:19:05;100559.00;;;5.10
68745;BMP180;73143;45.456;11.064;2023-12-20T01:21:41;100556.40;;;5.10
68745;BMP180;73143;45.456;11.064;2023-12-20T01:24:18;100556.20;;;5.00
68745;BMP180;73143;45.456;11.064;2023-12-20T01:26:55;100554.80;;;5.06
68745;BMP180;73143;45.456;11.064;2023-12-20T01:29:32;100553.80;;;5.08
68745;BMP180;73143;45.456;11.064;2023-12-20T01:32:11;100548.60;;;5.00
68745;BMP180;73143;45.456;11.064;2023-12-20T01:34:47;100545.40;;;5.00
68745;BMP180;73143;45.456;11.064;2023-12-20T01:37:24;100546.60;;;5.00
68745;BMP180;73143;45.456;11.064;2023-12-20T01:40:00;100545.60;;;5.00
68745;BMP180;73143;45.456;11.064;2023-12-20T01:42:37;100543.40;;;5.00
68745;BMP180;73143;45.456;11.064;2023-12-20T01:45:18;100539.00;;;5.00
68745;BMP180;73143;45.456;11.064;2023-12-20T01:47:56;100532.60;;;5.00
68745;BMP180;73143;45.456;11.064;2023-12-20T01:50:33;100534.60;;;5.00
68745;BMP180;73143;45.456;11.064;2023-12-20T01:53:14;100533.00;;;5.00
68745;BMP180;73143;45.456;11.064;2023-12-20T01:55:54;100526.20;;;5.10
68745;BMP180;73143;45.456;11.064;2023-12-20T01:58:31;100526.00;;;5.10
68745;BMP180;73143;45.456;11.064;2023-12-20T02:01:09;100526.00;;;5.10
68745;BMP180;73143;45.456;11.064;2023-12-20T02:03:46;100514.80;;;5.02
68745;BMP180;73143;45.456;11.064;2023-12-20T02:06:27;100513.40;;;5.00
68745;BMP180;73143;45.456;11.064;2023-12-20T02:09:05;100504.20;;;4.96
68745;BMP180;73143;45.456;11.064;2023-12-20T02:11:43;100502.40;;;4.90
68745;BMP180;73143;45.456;11.064;2023-12-20T02:14:21;100509.40;;;4.80
68745;BMP180;73143;45.456;11.064;2023-12-20T02:16:59;100505.20;;;4.70
68745;BMP180;73143;45.456;11.064;2023-12-20T02:19:35;100504.40;;;4.70
68745;BMP180;73143;45.456;11.064;2023-12-20T02:22:14;100506.60;;;4.70
68745;BMP180;73143;45.456;11.064;2023-12-20T02:24:51;100503.40;;;4.60
68745;BMP180;73143;45.456;11.064;2023-12-20T02:27:29;100503.20;;;4.60
68745;BMP180;73143;45.456;11.064;2023-12-20T02:30:09;100501.40;;;4.60
68745;BMP180;73143;45.456;11.064;2023-12-20T02:32:47;100502.00;;;4.50
68745;BMP180;73143;45.456;11.064;2023-12-20T02:35:25;100490.60;;;4.50
68745;BMP180;73143;45.456;11.064;2023-12-20T02:38:01;100489.60;;;4.50
68745;BMP180;73143;45.456;11.064;2023-12-20T02:40:39;100483.60;;;4.60
68745;BMP180;73143;45.456;11.064;2023-12-20T02:43:23;100477.00;;;4.70
68745;BMP180;73143;45.456;11.064;2023-12-20T02:46:00;100482.00;;;4.70
68745;BMP180;73143;45.456;11.064;2023-12-20T02:48:37;100477.80;;;4.68
68745;BMP180;73143;45.456;11.064;2023-12-20T02:51:14;100471.40;;;4.66
68745;BMP180;73143;45.456;11.064;2023-12-20T02:53:51;100466.00;;;4.60
68745;BMP180;73143;45.456;11.064;2023-12-20T02:56:28;100465.80;;;4.50
68745;BMP180;73143;45.456;11.064;2023-12-20T02:59:05;100465.60;;;4.50
68745;BMP180;73143;45.456;11.064;2023-12-20T03:01:46;100461.80;;;4.42
68745;BMP180;73143;45.456;11.064;2023-12-20T03:04:24;100456.40;;;4.40
68745;BMP180;73143;45.456;11.064;2023-12-20T03:07:00;100455.20;;;4.40
68745;BMP180;73143;45.456;11.064;2023-12-20T03:09:38;100455.20;;;4.40
68745;BMP180;73143;45.456;11.064;2023-12-20T03:12:35;100451.80;;;4.40
68745;BMP180;73143;45.456;11.064;2023-12-20T03:15:15;100449.80;;;4.40
68745;BMP180;73143;45.456;11.064;2023-12-20T03:17:51;100442.60;;;4.32
68745;BMP180;73143;45.456;11.064;2023-12-20T03:20:29;100449.20;;;4.30
68745;BMP180;73143;45.456;11.064;2023-12-20T03:23:08;100445.20;;;4.30
68745;BMP180;73143;45.456;11.064;2023-12-20T03:25:45;100438.80;;;4.22
68745;BMP180;73143;45.456;11.064;2023-12-20T03:28:23;100428.20;;;4.22
68745;BMP180;73143;45.456;11.064;2023-12-20T03:31:00;100413.40;;;4.30
68745;BMP180;73143;45.456;11.064;2023-12-20T03:33:38;100414.00;;;4.30
68745;BMP180;73143;45.456;11.064;2023-12-20T03:36:15;100407.00;;;4.30
68745;BMP180;73143;45.456;11.064;2023-12-20T03:38:51;100403.40;;;4.30
68745;BMP180;73143;45.456;11.064;2023-12-20T03:41:28;100407.20;;;4.30
68745;BMP180;73143;45.456;11.064;2023-12-20T03:44:05;100405.40;;;4.30
68745;BMP180;73143;45.456;11.064;2023-12-20T03:46:42;100399.20;;;4.30
68745;BMP180;73143;45.456;11.064;2023-12-20T03:49:20;100398.00;;;4.38
68745;BMP180;73143;45.456;11.064;2023-12-20T03:51:57;100404.20;;;4.40
68745;BMP180;73143;45.456;11.064;2023-12-20T03:54:34;100403.40;;;4.40
68745;BMP180;73143;45.456;11.064;2023-12-20T03:57:12;100403.80;;;4.50
68745;BMP180;73143;45.456;11.064;2023-12-20T03:59:49;100400.80;;;4.50
68745;BMP180;73143;45.456;11.064;2023-12-20T04:02:26;100397.40;;;4.50
68745;BMP180;73143;45.456;11.064;2023-12-20T04:05:02;100398.60;;;4.54
68745;BMP180;73143;45.456;11.064;2023-12-20T04:07:40;100396.60;;;4.52
68745;BMP180;73143;45.456;11.064;2023-12-20T04:10:17;100398.00;;;4.58
68745;BMP180;73143;45.456;11.064;2023-12-20T04:12:55;100399.40;;;4.50
68745;BMP180;73143;45.456;11.064;2023-12-20T04:15:32;100388.20;;;4.40
68745;BMP180;73143;45.456;11.064;2023-12-20T04:18:09;100378.80;;;4.30
68745;BMP180;73143;45.456;11.064;2023-12-20T04:20:46;100382.60;;;4.28
68745;BMP180;73143;45.456;11.064;2023-12-20T04:23:23;100375.80;;;4.20
68745;BMP180;73143;45.456;11.064;2023-12-20T04:26:00;100375.80;;;4.22
68745;BMP180;73143;45.456;11.064;2023-12-20T04:28:38;100374.20;;;4.26
68745;BMP180;73143;45.456;11.064;2023-12-20T04:31:14;100368.00;;;4.30
68745;BMP180;73143;45.456;11.064;2023-12-20T04:33:51;100366.20;;;4.30
68745;BMP180;73143;45.456;11.064;2023-12-20T04:36:28;100363.40;;;4.30
68745;BMP180;73143;45.456;11.064;2023-12-20T04:39:05;100362.60;;;4.30
68745;BMP180;73143;45.456;11.064;2023-12-20T04:41:43;100361.20;;;4.30
68745;BMP180;73143;45.456;11.064;2023-12-20T04:44:21;100368.20;;;4.30
68745;BMP180;73143;45.456;11.064;2023-12-20T04:46:58;100363.80;;;4.32
68745;BMP180;73143;45.456;11.064;2023-12-20T04:49:35;100353.40;;;4.38
68745;BMP180;73143;45.456;11.064;2023-12-20T04:52:12;100352.20;;;4.38
68745;BMP180;73143;45.456;11.064;2023-12-20T04:54:48;100362.00;;;4.40
68745;BMP180;73143;45.456;11.064;2023-12-20T04:57:25;100358.60;;;4.40
68745;BMP180;73143;45.456;11.064;2023-12-20T05:00:02;100350.00;;;4.40
68745;BMP180;73143;45.456;11.064;2023-12-20T05:02:40;100344.00;;;4.40
68745;BMP180;73143;45.456;11.064;2023-12-20T05:05:17;100350.40;;;4.40
68745;BMP180;73143;45.456;11.064;2023-12-20T05:07:53;100352.40;;;4.44
68745;BMP180;73143;45.456;11.064;2023-12-20T05:10:30;100346.40;;;4.40
68745;BMP180;73143;45.456;11.064;2023-12-20T05:13:07;100344.60;;;4.40
68745;BMP180;73143;45.456;11.064;2023-12-20T05:15:44;100346.20;;;4.40
68745;BMP180;73143;45.456;11.064;2023-12-20T05:18:20;100347.80;;;4.40
68745;BMP180;73143;45.456;11.064;2023-12-20T05:20:57;100354.40;;;4.40
68745;BMP180;73143;45.456;11.064;2023-12-20T05:23:33;100362.40;;;4.40
68745;BMP180;73143;45.456;11.064;2023-12-20T05:26:09;100359.80;;;4.40
68745;BMP180;73143;45.456;11.064;2023-12-20T05:28:46;100359.80;;;4.40
68745;BMP180;73143;45.456;11.064;2023-12-20T05:31:23;100361.20;;;4.40
68745;BMP180;73143;45.456;11.064;2023-12-20T05:34:00;100358.00;;;4.50
68745;BMP180;73143;45.456;11.064;2023-12-20T05:36:36;100353.20;;;4.50
68745;BMP180;73143;45.456;11.064;2023-12-20T05:39:13;100348.60;;;4.58
68745;BMP180;73143;45.456;11.064;2023-12-20T05:41:50;100347.00;;;4.60
68745;BMP180;73143;45.456;11.064;2023-12-20T05:44:27;100345.00;;;4.60
68745;BMP180;73143;45.456;11.064;2023-12-20T05:47:04;100342.20;;;4.62
68745;BMP180;73143;45.456;11.064;2023-12-20T05:49:42;100343.80;;;4.60
68745;BMP180;73143;45.456;11.064;2023-12-20T05:52:19;100334.00;;;4.60
68745;BMP180;73143;45.456;11.064;2023-12-20T05:54:57;100337.20;;;4.60
68745;BMP180;73143;45.456;11.064;2023-12-20T05:57:36;100335.40;;;4.60
68745;BMP180;73143;45.456;11.064;2023-12-20T06:00:21;100326.60;;;4.60
68745;BMP180;73143;45.456;11.064;2023-12-20T06:02:59;100326.40;;;4.70
68745;BMP180;73143;45.456;11.064;2023-12-20T06:05:36;100330.40;;;4.70
68745;BMP180;73143;45.456;11.064;2023-12-20T06:08:13;100325.60;;;4.80
68745;BMP180;73143;45.456;11.064;2023-12-20T06:10:50;100330.80;;;4.80
68745;BMP180;73143;45.456;11.064;2023-12-20T06:13:28;100324.00;;;4.80
68745;BMP180;73143;45.456;11.064;2023-12-20T06:16:08;100321.80;;;4.80
68745;BMP180;73143;45.456;11.064;2023-12-20T06:18:44;100321.40;;;4.80
68745;BMP180;73143;45.456;11.064;2023-12-20T06:21:22;100316.40;;;4.80
68745;BMP180;73143;45.456;11.064;2023-12-20T06:23:59;100307.00;;;4.80
68745;BMP180;73143;45.456;11.064;2023-12-20T06:26:36;100309.80;;;4.72
68745;BMP180;73143;45.456;11.064;2023-12-20T06:29:13;100320.60;;;4.70
68745;BMP180;73143;45.456;11.064;2023-12-20T06:31:50;100316.40;;;4.70
68745;BMP180;73143;45.456;11.064;2023-12-20T06:34:27;100310.20;;;4.72
68745;BMP180;73143;45.456;11.064;2023-12-20T06:37:04;100301.80;;;4.80
68745;BMP180;73143;45.456;11.064;2023-12-20T06:39:42;100302.40;;;4.80
68745;BMP180;73143;45.456;11.064;2023-12-20T06:42:19;100304.20;;;4.90
68745;BMP180;73143;45.456;11.064;2023-12-20T06:44:56;100304.60;;;4.90
68745;BMP180;73143;45.456;11.064;2023-12-20T06:47:34;100302.00;;;4.90
68745;BMP180;73143;45.456;11.064;2023-12-20T06:50:13;100302.60;;;4.80
68745;BMP180;73143;45.456;11.064;2023-12-20T06:52:50;100302.00;;;4.80
68745;BMP180;73143;45.456;11.064;2023-12-20T06:55:26;100297.80;;;4.78
68745;BMP180;73143;45.456;11.064;2023-12-20T06:58:04;100297.20;;;4.80
68745;BMP180;73143;45.456;11.064;2023-12-20T07:00:40;100304.00;;;4.80
68745;BMP180;73143;45.456;11.064;2023-12-20T07:03:17;100302.40;;;4.80
68745;BMP180;73143;45.456;11.064;2023-12-20T07:05:54;100298.60;;;4.80
68745;BMP180;73143;45.456;11.064;2023-12-20T07:08:31;100302.20;;;4.80
68745;BMP180;73143;45.456;11.064;2023-12-20T07:11:09;100307.60;;;4.80
68745;BMP180;73143;45.456;11.064;2023-12-20T07:13:46;100308.00;;;4.90
68745;BMP180;73143;45.456;11.064;2023-12-20T07:16:23;100311.40;;;4.90
68745;BMP180;73143;45.456;11.064;2023-12-20T07:19:01;100313.40;;;4.90
68745;BMP180;73143;45.456;11.064;2023-12-20T07:21:38;100325.20;;;4.90
68745;BMP180;73143;45.456;11.064;2023-12-20T07:24:15;100329.60;;;4.90
68745;BMP180;73143;45.456;11.064;2023-12-20T07:26:52;100334.00;;;4.90
68745;BMP180;73143;45.456;11.064;2023-12-20T07:29:30;100333.80;;;4.90
68745;BMP180;73143;45.456;11.064;2023-12-20T07:32:09;100336.80;;;4.90
68745;BMP180;73143;45.456;11.064;2023-12-20T07:34:47;100340.00;;;4.90
68745;BMP180;73143;45.456;11.064;2023-12-20T07:37:25;100350.40;;;4.90
68745;BMP180;73143;45.456;11.064;2023-12-20T07:40:02;100360.20;;;4.90
68745;BMP180;73143;45.456;11.064;2023-12-20T07:42:39;100349.00;;;4.90
68745;BMP180;73143;45.456;11.064;2023-12-20T07:45:16;100349.80;;;4.90
68745;BMP180;73143;45.456;11.064;2023-12-20T07:47:53;100348.80;;;4.90
68745;BMP180;73143;45.456;11.064;2023-12-20T07:50:31;100337.20;;;4.90
68745;BMP180;73143;45.456;11.064;2023-12-20T07:53:10;100327.00;;;4.90
68745;BMP180;73143;45.456;11.064;2023-12-20T07:55:46;100335.40;;;4.90
68745;BMP180;73143;45.456;11.064;2023-12-20T07:58:23;100337.80;;;4.90
68745;BMP180;73143;45.456;11.064;2023-12-20T08:01:19;100347.20;;;4.96
68745;BMP180;73143;45.456;11.064;2023-12-20T08:03:56;100350.20;;;5.00
68745;BMP180;73143;45.456;11.064;2023-12-20T08:06:33;100344.00;;;5.00
68745;BMP180;73143;45.456;11.064;2023-12-20T08:09:10;100345.00;;;5.00
68745;BMP180;73143;45.456;11.064;2023-12-20T08:11:49;100348.20;;;5.10
68745;BMP180;73143;45.456;11.064;2023-12-20T08:14:26;100345.80;;;5.14
68745;BMP180;73143;45.456;11.064;2023-12-20T08:17:04;100353.00;;;5.20
68745;BMP180;73143;45.456;11.064;2023-12-20T08:19:45;100362.40;;;5.24
68745;BMP180;73143;45.456;11.064;2023-12-20T08:22:22;100359.00;;;5.30
68745;BMP180;73143;45.456;11.064;2023-12-20T08:24:58;100356.40;;;5.34
68745;BMP180;73143;45.456;11.064;2023-12-20T08:27:35;100359.60;;;5.40
68745;BMP180;73143;45.456;11.064;2023-12-20T08:30:16;100365.00;;;5.40
68745;BMP180;73143;45.456;11.064;2023-12-20T08:32:56;100363.40;;;5.50
68745;BMP180;73143;45.456;11.064;2023-12-20T08:35:32;100375.80;;;5.50
68745;BMP180;73143;45.456;11.064;2023-12-20T08:38:08;100372.40;;;5.50
68745;BMP180;73143;45.456;11.064;2023-12-20T08:40:45;100365.80;;;5.50
68745;BMP180;73143;45.456;11.064;2023-12-20T08:43:22;100371.60;;;5.50
68745;BMP180;73143;45.456;11.064;2023-12-20T08:45:59;100370.40;;;5.50
68745;BMP180;73143;45.456;11.064;2023-12-20T08:48:36;100363.80;;;5.60
68745;BMP180;73143;45.456;11.064;2023-12-20T08:51:14;100364.00;;;5.60
68745;BMP180;73143;45.456;11.064;2023-12-20T08:53:51;100366.00;;;5.60
68745;BMP180;73143;45.456;11.064;2023-12-20T08:56:28;100369.60;;;5.64
68745;BMP180;73143;45.456;11.064;2023-12-20T08:59:04;100377.20;;;5.70
68745;BMP180;73143;45.456;11.064;2023-12-20T09:01:41;100375.00;;;5.70
68745;BMP180;73143;45.456;11.064;2023-12-20T09:04:18;100371.20;;;5.70
68745;BMP180;73143;45.456;11.064;2023-12-20T09:06:55;100363.60;;;5.80
68745;BMP180;73143;45.456;11.064;2023-12-20T09:09:33;100362.00;;;5.80
68745;BMP180;73143;45.456;11.064;2023-12-20T09:12:13;100363.00;;;5.80
68745;BMP180;73143;45.456;11.064;2023-12-20T09:14:53;100363.60;;;5.80
68745;BMP180;73143;45.456;11.064;2023-12-20T09:17:31;100372.20;;;5.80
68745;BMP180;73143;45.456;11.064;2023-12-20T09:20:12;100379.20;;;5.80
68745;BMP180;73143;45.456;11.064;2023-12-20T09:22:49;100376.20;;;5.82
68745;BMP180;73143;45.456;11.064;2023-12-20T09:25:25;100379.80;;;5.88
68745;BMP180;73143;45.456;11.064;2023-12-20T09:28:02;100383.60;;;5.90
68745;BMP180;73143;45.456;11.064;2023-12-20T09:30:39;100385.40;;;5.90
68745;BMP180;73143;45.456;11.064;2023-12-20T09:33:16;100388.00;;;5.90
68745;BMP180;73143;45.456;11.064;2023-12-20T09:35:52;100381.60;;;5.90
68745;BMP180;73143;45.456;11.064;2023-12-20T09:38:29;100370.80;;;5.92
68745;BMP180;73143;45.456;11.064;2023-12-20T09:41:07;100364.40;;;5.98
68745;BMP180;73143;45.456;11.064;2023-12-20T09:43:45;100356.40;;;5.98
68745;BMP180;73143;45.456;11.064;2023-12-20T09:46:27;100349.40;;;5.94
68745;BMP180;73143;45.456;11.064;2023-12-20T09:49:06;100345.20;;;6.00
68745;BMP180;73143;45.456;11.064;2023-12-20T09:51:44;100343.20;;;6.00
68745;BMP180;73143;45.456;11.064;2023-12-20T09:54:23;100341.60;;;6.00
68745;BMP180;73143;45.456;11.064;2023-12-20T09:56:59;100335.20;;;6.00
68745;BMP180;73143;45.456;11.064;2023-12-20T09:59:37;100333.80;;;6.04
68745;BMP180;73143;45.456;11.064;2023-12-20T10:02:19;100333.60;;;6.10
68745;BMP180;73143;45.456;11.064;2023-12-20T10:04:59;100328.80;;;6.10
68745;BMP180;73143;45.456;11.064;2023-12-20T10:07:37;100326.80;;;6.10
68745;BMP180;73143;45.456;11.064;2023-12-20T10:10:17;100320.60;;;6.20
68745;BMP180;73143;45.456;11.064;2023-12-20T10:13:11;100311.80;;;6.20
68745;BMP180;73143;45.456;11.064;2023-12-20T10:15:49;100312.60;;;6.20
68745;BMP180;73143;45.456;11.064;2023-12-20T10:18:27;100310.60;;;6.28
68745;BMP180;73143;45.456;11.064;2023-12-20T10:21:12;100304.40;;;6.30
68745;BMP180;73143;45.456;11.064;2023-12-20T10:23:50;100296.80;;;6.30
68745;BMP180;73143;45.456;11.064;2023-12-20T10:26:27;100295.80;;;6.30
68745;BMP180;73143;45.456;11.064;2023-12-20T10:29:06;100295.60;;;6.38
68745;BMP180;73143;45.456;11.064;2023-12-20T10:31:43;100288.80;;;6.40
68745;BMP180;73143;45.456;11.064;2023-12-20T10:34:20;100286.20;;;6.40
68745;BMP180;73143;45.456;11.064;2023-12-20T10:36:58;100285.60;;;6.40
68745;BMP180;73143;45.456;11.064;2023-12-20T10:39:36;100288.60;;;6.44
68745;BMP180;73143;45.456;11.064;2023-12-20T10:42:13;100298.20;;;6.50
68745;BMP180;73143;45.456;11.064;2023-12-20T10:44:51;100297.60;;;6.50
68745;BMP180;73143;45.456;11.064;2023-12-20T10:47:32;100284.20;;;6.50
68745;BMP180;73143;45.456;11.064;2023-12-20T10:50:14;100281.20;;;6.50
68745;BMP180;73143;45.456;11.064;2023-12-20T10:52:54;100286.00;;;6.50
68745;BMP180;73143;45.456;11.064;2023-12-20T10:55:31;100284.80;;;6.50
68745;BMP180;73143;45.456;11.064;2023-12-20T10:58:12;100279.60;;;6.54
68745;BMP180;73143;45.456;11.064;2023-12-20T11:00:54;100279.20;;;6.60
68745;BMP180;73143;45.456;11.064;2023-12-20T11:03:38;100268.20;;;6.60
68745;BMP180;73143;45.456;11.064;2023-12-20T11:06:33;100269.80;;;6.60
68745;BMP180;73143;45.456;11.064;2023-12-20T11:09:22;100267.20;;;6.60
68745;BMP180;73143;45.456;11.064;2023-12-20T11:12:13;100271.60;;;6.60
68745;BMP180;73143;45.456;11.064;2023-12-20T11:14:54;100278.80;;;6.60
68745;BMP180;73143;45.456;11.064;2023-12-20T11:17:31;100276.00;;;6.64
68745;BMP180;73143;45.456;11.064;2023-12-20T11:20:15;100279.60;;;6.70
68745;BMP180;73143;45.456;11.064;2023-12-20T11:23:00;100277.20;;;6.70
68745;BMP180;73143;45.456;11.064;2023-12-20T11:25:51;100275.00;;;6.70
68745;BMP180;73143;45.456;11.064;2023-12-20T11:28:30;100274.40;;;6.70
68745;BMP180;73143;45.456;11.064;2023-12-20T11:31:07;100274.80;;;6.70
68745;BMP180;73143;45.456;11.064;2023-12-20T11:33:45;100275.40;;;6.80
68745;BMP180;73143;45.456;11.064;2023-12-20T11:36:27;100274.00;;;6.80
68745;BMP180;73143;45.456;11.064;2023-12-20T11:39:09;100270.60;;;6.80
68745;BMP180;73143;45.456;11.064;2023-12-20T11:41:51;100275.80;;;6.86
68745;BMP180;73143;45.456;11.064;2023-12-20T11:44:33;100276.40;;;6.90
68745;BMP180;73143;45.456;11.064;2023-12-20T11:47:11;100271.20;;;6.90
68745;BMP180;73143;45.456;11.064;2023-12-20T11:49:51;100260.40;;;6.90
68745;BMP180;73143;45.456;11.064;2023-12-20T11:52:29;100253.00;;;6.98
68745;BMP180;73143;45.456;11.064;2023-12-20T11:55:07;100241.40;;;7.00
68745;BMP180;73143;45.456;11.064;2023-12-20T11:57:45;100227.20;;;7.00
68745;BMP180;73143;45.456;11.064;2023-12-20T12:00:24;100230.20;;;7.00
68745;BMP180;73143;45.456;11.064;2023-12-20T12:03:06;100229.80;;;7.06
68745;BMP180;73143;45.456;11.064;2023-12-20T12:05:44;100229.80;;;7.10
68745;BMP180;73143;45.456;11.064;2023-12-20T12:08:23;100225.20;;;7.20
68745;BMP180;73143;45.456;11.064;2023-12-20T12:11:01;100222.40;;;7.20
68745;BMP180;73143;45.456;11.064;2023-12-20T12:13:38;100218.20;;;7.26
68745;BMP180;73143;45.456;11.064;2023-12-20T12:16:16;100216.00;;;7.30
68745;BMP180;73143;45.456;11.064;2023-12-20T12:19:01;100214.80;;;7.30
68745;BMP180;73143;45.456;11.064;2023-12-20T12:21:37;100211.40;;;7.40
68745;BMP180;73143;45.456;11.064;2023-12-20T12:24:19;100206.40;;;7.40
68745;BMP180;73143;45.456;11.064;2023-12-20T12:27:02;100203.20;;;7.50
68745;BMP180;73143;45.456;11.064;2023-12-20T12:29:39;100199.40;;;7.50
68745;BMP180;73143;45.456;11.064;2023-12-20T12:32:17;100191.20;;;7.56
68745;BMP180;73143;45.456;11.064;2023-12-20T12:34:55;100188.80;;;7.60
68745;BMP180;73143;45.456;11.064;2023-12-20T12:37:33;100178.80;;;7.60
68745;BMP180;73143;45.456;11.064;2023-12-20T12:40:15;100186.00;;;7.60
68745;BMP180;73143;45.456;11.064;2023-12-20T12:42:51;100188.60;;;7.60
68745;BMP180;73143;45.456;11.064;2023-12-20T12:45:28;100189.60;;;7.68
68745;BMP180;73143;45.456;11.064;2023-12-20T12:48:05;100192.80;;;7.70
68745;BMP180;73143;45.456;11.064;2023-12-20T12:50:42;100191.80;;;7.72
68745;BMP180;73143;45.456;11.064;2023-12-20T12:53:19;100191.80;;;7.80
68745;BMP180;73143;45.456;11.064;2023-12-20T12:55:56;100186.20;;;7.80
68745;BMP180;73143;45.456;11.064;2023-12-20T12:58:33;100175.80;;;7.90
68745;BMP180;73143;45.456;11.064;2023-12-20T13:01:10;100165.80;;;7.90
68745;BMP180;73143;45.456;11.064;2023-12-20T13:03:47;100172.80;;;8.00
68745;BMP180;73143;45.456;11.064;2023-12-20T13:06:25;100169.40;;;8.10
68745;BMP180;73143;45.456;11.064;2023-12-20T13:09:01;100165.20;;;8.10
68745;BMP180;73143;45.456;11.064;2023-12-20T13:11:39;100163.80;;;8.20
68745;BMP180;73143;45.456;11.064;2023-12-20T13:14:16;100165.00;;;8.30
68745;BMP180;73143;45.456;11.064;2023-12-20T13:16:53;100160.00;;;8.40
68745;BMP180;73143;45.456;11.064;2023-12-20T13:19:31;100155.40;;;8.48
68745;BMP180;73143;45.456;11.064;2023-12-20T13:22:08;100145.80;;;8.50
68745;BMP180;73143;45.456;11.064;2023-12-20T13:24:46;100149.60;;;8.60
68745;BMP180;73143;45.456;11.064;2023-12-20T13:27:23;100147.20;;;8.70
68745;BMP180;73143;45.456;11.064;2023-12-20T13:30:00;100146.00;;;8.80
68745;BMP180;73143;45.456;11.064;2023-12-20T13:32:37;100147.20;;;8.90
68745;BMP180;73143;45.456;11.064;2023-12-20T13:35:14;100145.60;;;9.00
68745;BMP180;73143;45.456;11.064;2023-12-20T13:37:54;100139.60;;;9.10
68745;BMP180;73143;45.456;11.064;2023-12-20T13:40:32;100139.40;;;9.20
68745;BMP180;73143;45.456;11.064;2023-12-20T13:43:10;100145.80;;;9.28
68745;BMP180;73143;45.456;11.064;2023-12-20T13:45:48;100145.60;;;9.30
68745;BMP180;73143;45.456;11.064;2023-12-20T13:48:25;100144.20;;;9.20
68745;BMP180;73143;45.456;11.064;2023-12-20T13:51:02;100138.20;;;9.20
68745;BMP180;73143;45.456;11.064;2023-12-20T13:53:39;100145.00;;;9.10
68745;BMP180;73143;45.456;11.064;2023-12-20T13:56:17;100143.00;;;9.10
68745;BMP180;73143;45.456;11.064;2023-12-20T13:58:54;100145.80;;;9.00
68745;BMP180;73143;45.456;11.064;2023-12-20T14:01:31;100147.80;;;9.00
68745;BMP180;73143;45.456;11.064;2023-12-20T14:04:08;100145.80;;;8.90
68745;BMP180;73143;45.456;11.064;2023-12-20T14:07:06;100155.20;;;8.90
68745;BMP180;73143;45.456;11.064;2023-12-20T14:09:43;100162.20;;;8.90
68745;BMP180;73143;45.456;11.064;2023-12-20T14:12:21;100157.80;;;8.90
68745;BMP180;73143;45.456;11.064;2023-12-20T14:14:57;100157.40;;;8.90
68745;BMP180;73143;45.456;11.064;2023-12-20T14:17:34;100157.80;;;8.92
68745;BMP180;73143;45.456;11.064;2023-12-20T14:20:14;100160.40;;;8.90
68745;BMP180;73143;45.456;11.064;2023-12-20T14:22:51;100160.00;;;8.96
68745;BMP180;73143;45.456;11.064;2023-12-20T14:25:28;100160.80;;;9.00
68745;BMP180;73143;45.456;11.064;2023-12-20T14:28:19;100165.40;;;8.90
68745;BMP180;73143;45.456;11.064;2023-12-20T14:30:55;100160.20;;;8.90
68745;BMP180;73143;45.456;11.064;2023-12-20T14:33:33;100154.80;;;8.90
68745;BMP180;73143;45.456;11.064;2023-12-20T14:36:13;100158.40;;;8.90
68745;BMP180;73143;45.456;11.064;2023-12-20T14:38:51;100161.00;;;8.90
68745;BMP180;73143;45.456;11.064;2023-12-20T14:41:28;100165.00;;;8.90
68745;BMP180;73143;45.456;11.064;2023-12-20T14:44:06;100168.00;;;8.90
68745;BMP180;73143;45.456;11.064;2023-12-20T14:46:43;100168.80;;;8.90
68745;BMP180;73143;45.456;11.064;2023-12-20T14:49:20;100173.00;;;8.90
68745;BMP180;73143;45.456;11.064;2023-12-20T14:51:57;100169.60;;;8.90
68745;BMP180;73143;45.456;11.064;2023-12-20T14:54:33;100167.20;;;8.90
68745;BMP180;73143;45.456;11.064;2023-12-20T14:57:10;100166.60;;;8.86